sensor_id;sensor_type;location;lat;lon;timestamp;P1;durP1;ratioP1;P2;durP2;ratioP2
27895;SDS011;15241;48.374;10.876;2023-03-03T00:03:49;53.95;;;26.97;;
27895;SDS011;15241;48.374;10.876;2023-03-03T00:08:49;56.45;;;26.33;;
27895;SDS011;15241;48.374;10.876;2023-03-03T00:13:56;56.50;;;28.00;;
27895;SDS011;15241;48.374;10.876;2023-03-03T00:18:56;57.60;;;26.10;;
27895;SDS011;15241;48.374;10.876;2023-03-03T00:24:01;49.77;;;24.87;;
27895;SDS011;15241;48.374;10.876;2023-03-03T00:29:30;58.83;;;27.42;;
27895;SDS011;15241;48.374;10.876;2023-03-03T00:34:32;52.65;;;26.27;;
27895;SDS011;15241;48.374;10.876;2023-03-03T00:39:34;51.28;;;24.63;;
27895;SDS011;15241;48.374;10.876;2023-03-03T00:44:41;53.80;;;26.95;;
27895;SDS011;15241;48.374;10.876;2023-03-03T00:49:41;54.30;;;26.68;;
27895;SDS011;15241;48.374;10.876;2023-03-03T00:54:40;62.20;;;28.20;;
27895;SDS011;15241;48.374;10.876;2023-03-03T00:59:39;60.38;;;28.70;;
27895;SDS011;15241;48.374;10.876;2023-03-03T01:04:40;60.80;;;27.73;;
27895;SDS011;15241;48.374;10.876;2023-03-03T01:09:40;53.52;;;27.62;;
27895;SDS011;15241;48.374;10.876;2023-03-03T01:14:41;61.88;;;28.60;;
27895;SDS011;15241;48.374;10.876;2023-03-03T01:19:40;61.88;;;26.48;;
27895;SDS011;15241;48.374;10.876;2023-03-03T01:24:39;58.55;;;28.52;;
27895;SDS011;15241;48.374;10.876;2023-03-03T01:29:38;59.08;;;28.40;;
27895;SDS011;15241;48.374;10.876;2023-03-03T01:34:37;60.12;;;27.60;;
27895;SDS011;15241;48.374;10.876;2023-03-03T01:39:36;64.27;;;29.57;;
27895;SDS011;15241;48.374;10.876;2023-03-03T01:44:43;58.80;;;28.07;;
27895;SDS011;15241;48.374;10.876;2023-03-03T01:49:44;58.23;;;26.82;;
27895;SDS011;15241;48.374;10.876;2023-03-03T01:54:47;59.15;;;27.52;;
27895;SDS011;15241;48.374;10.876;2023-03-03T01:59:48;58.30;;;28.62;;
27895;SDS011;15241;48.374;10.876;2023-03-03T02:04:49;59.42;;;27.22;;
27895;SDS011;15241;48.374;10.876;2023-03-03T02:09:50;63.33;;;27.35;;
27895;SDS011;15241;48.374;10.876;2023-03-03T02:14:51;60.17;;;29.20;;
27895;SDS011;15241;48.374;10.876;2023-03-03T02:19:53;58.78;;;29.12;;
27895;SDS011;15241;48.374;10.876;2023-03-03T02:29:53;59.75;;;27.87;;
27895;SDS011;15241;48.374;10.876;2023-03-03T02:34:52;58.68;;;27.00;;
27895;SDS011;15241;48.374;10.876;2023-03-03T02:39:51;58.50;;;27.90;;
27895;SDS011;15241;48.374;10.876;2023-03-03T02:44:50;57.48;;;27.62;;
27895;SDS011;15241;48.374;10.876;2023-03-03T02:49:50;58.30;;;28.02;;
27895;SDS011;15241;48.374;10.876;2023-03-03T02:54:49;57.25;;;27.37;;
27895;SDS011;15241;48.374;10.876;2023-03-03T02:59:48;61.35;;;26.65;;
27895;SDS011;15241;48.374;10.876;2023-03-03T03:04:47;61.37;;;28.65;;
27895;SDS011;15241;48.374;10.876;2023-03-03T03:09:46;52.35;;;26.20;;
27895;SDS011;15241;48.374;10.876;2023-03-03T03:14:45;56.75;;;26.95;;
27895;SDS011;15241;48.374;10.876;2023-03-03T03:19:44;59.95;;;27.13;;
27895;SDS011;15241;48.374;10.876;2023-03-03T03:24:43;61.55;;;27.82;;
27895;SDS011;15241;48.374;10.876;2023-03-03T03:29:42;61.58;;;29.02;;
27895;SDS011;15241;48.374;10.876;2023-03-03T03:34:41;62.00;;;28.75;;
27895;SDS011;15241;48.374;10.876;2023-03-03T03:39:40;55.60;;;26.25;;
27895;SDS011;15241;48.374;10.876;2023-03-03T03:44:39;58.45;;;27.15;;
27895;SDS011;15241;48.374;10.876;2023-03-03T03:49:39;61.83;;;27.65;;
27895;SDS011;15241;48.374;10.876;2023-03-03T03:54:38;56.48;;;27.25;;
27895;SDS011;15241;48.374;10.876;2023-03-03T03:59:37;59.70;;;27.55;;
27895;SDS011;15241;48.374;10.876;2023-03-03T04:04:37;57.95;;;28.77;;
27895;SDS011;15241;48.374;10.876;2023-03-03T04:09:36;55.65;;;27.02;;
27895;SDS011;15241;48.374;10.876;2023-03-03T04:14:35;61.83;;;28.05;;
27895;SDS011;15241;48.374;10.876;2023-03-03T04:19:34;57.25;;;27.93;;
27895;SDS011;15241;48.374;10.876;2023-03-03T04:24:33;60.35;;;27.90;;
27895;SDS011;15241;48.374;10.876;2023-03-03T04:29:33;53.30;;;27.67;;
27895;SDS011;15241;48.374;10.876;2023-03-03T04:34:32;59.88;;;27.62;;
27895;SDS011;15241;48.374;10.876;2023-03-03T04:39:31;54.63;;;26.62;;
27895;SDS011;15241;48.374;10.876;2023-03-03T04:44:30;52.85;;;26.87;;
27895;SDS011;15241;48.374;10.876;2023-03-03T04:49:32;59.63;;;28.75;;
27895;SDS011;15241;48.374;10.876;2023-03-03T04:54:31;67.32;;;30.80;;
27895;SDS011;15241;48.374;10.876;2023-03-03T04:59:30;61.60;;;28.20;;
27895;SDS011;15241;48.374;10.876;2023-03-03T05:04:29;64.40;;;28.90;;
27895;SDS011;15241;48.374;10.876;2023-03-03T05:09:28;55.58;;;26.73;;
27895;SDS011;15241;48.374;10.876;2023-03-03T05:14:27;53.00;;;27.02;;
27895;SDS011;15241;48.374;10.876;2023-03-03T05:19:26;59.18;;;28.27;;
27895;SDS011;15241;48.374;10.876;2023-03-03T05:24:25;61.10;;;29.50;;
27895;SDS011;15241;48.374;10.876;2023-03-03T05:29:24;61.90;;;28.92;;
27895;SDS011;15241;48.374;10.876;2023-03-03T05:34:23;56.13;;;27.70;;
27895;SDS011;15241;48.374;10.876;2023-03-03T05:39:22;57.50;;;29.18;;
27895;SDS011;15241;48.374;10.876;2023-03-03T05:44:21;60.10;;;27.62;;
27895;SDS011;15241;48.374;10.876;2023-03-03T05:49:20;56.30;;;28.27;;
27895;SDS011;15241;48.374;10.876;2023-03-03T05:54:19;54.67;;;26.62;;
27895;SDS011;15241;48.374;10.876;2023-03-03T05:59:18;61.13;;;31.40;;
27895;SDS011;15241;48.374;10.876;2023-03-03T06:04:17;56.50;;;29.95;;
27895;SDS011;15241;48.374;10.876;2023-03-03T06:09:16;55.17;;;28.07;;
27895;SDS011;15241;48.374;10.876;2023-03-03T06:14:15;63.38;;;29.98;;
27895;SDS011;15241;48.374;10.876;2023-03-03T06:19:14;53.48;;;27.93;;
27895;SDS011;15241;48.374;10.876;2023-03-03T06:24:13;59.08;;;30.40;;
27895;SDS011;15241;48.374;10.876;2023-03-03T06:29:13;63.23;;;28.25;;
27895;SDS011;15241;48.374;10.876;2023-03-03T06:34:12;58.17;;;28.57;;
27895;SDS011;15241;48.374;10.876;2023-03-03T06:39:12;59.65;;;28.87;;
27895;SDS011;15241;48.374;10.876;2023-03-03T06:44:11;59.60;;;28.17;;
27895;SDS011;15241;48.374;10.876;2023-03-03T06:49:10;60.60;;;27.80;;
27895;SDS011;15241;48.374;10.876;2023-03-03T06:54:11;59.75;;;29.90;;
27895;SDS011;15241;48.374;10.876;2023-03-03T06:59:12;53.80;;;28.57;;
27895;SDS011;15241;48.374;10.876;2023-03-03T07:04:18;59.53;;;29.98;;
27895;SDS011;15241;48.374;10.876;2023-03-03T07:09:28;60.08;;;29.07;;
27895;SDS011;15241;48.374;10.876;2023-03-03T07:14:30;57.08;;;29.25;;
27895;SDS011;15241;48.374;10.876;2023-03-03T07:19:31;56.48;;;27.07;;
27895;SDS011;15241;48.374;10.876;2023-03-03T07:24:31;53.15;;;27.50;;
27895;SDS011;15241;48.374;10.876;2023-03-03T07:29:31;61.60;;;30.25;;
27895;SDS011;15241;48.374;10.876;2023-03-03T07:34:34;62.33;;;29.55;;
27895;SDS011;15241;48.374;10.876;2023-03-03T07:39:35;52.48;;;28.45;;
27895;SDS011;15241;48.374;10.876;2023-03-03T07:44:35;53.90;;;27.80;;
27895;SDS011;15241;48.374;10.876;2023-03-03T07:49:36;58.48;;;29.50;;
27895;SDS011;15241;48.374;10.876;2023-03-03T07:54:37;53.65;;;28.02;;
27895;SDS011;15241;48.374;10.876;2023-03-03T07:59:37;55.25;;;29.27;;
27895;SDS011;15241;48.374;10.876;2023-03-03T08:04:39;64.58;;;30.75;;
27895;SDS011;15241;48.374;10.876;2023-03-03T08:09:47;59.75;;;30.12;;
27895;SDS011;15241;48.374;10.876;2023-03-03T08:14:48;60.67;;;29.42;;
27895;SDS011;15241;48.374;10.876;2023-03-03T08:19:48;65.83;;;31.40;;
27895;SDS011;15241;48.374;10.876;2023-03-03T08:24:49;60.88;;;30.57;;
27895;SDS011;15241;48.374;10.876;2023-03-03T08:29:48;55.20;;;27.00;;
27895;SDS011;15241;48.374;10.876;2023-03-03T08:34:47;55.00;;;29.45;;
27895;SDS011;15241;48.374;10.876;2023-03-03T08:39:46;56.42;;;29.75;;
27895;SDS011;15241;48.374;10.876;2023-03-03T08:44:45;57.10;;;28.65;;
27895;SDS011;15241;48.374;10.876;2023-03-03T08:49:43;54.88;;;29.15;;
27895;SDS011;15241;48.374;10.876;2023-03-03T08:54:43;55.15;;;29.40;;
27895;SDS011;15241;48.374;10.876;2023-03-03T08:59:44;55.90;;;30.20;;
27895;SDS011;15241;48.374;10.876;2023-03-03T09:04:44;54.13;;;29.70;;
27895;SDS011;15241;48.374;10.876;2023-03-03T09:09:42;54.48;;;28.92;;
27895;SDS011;15241;48.374;10.876;2023-03-03T09:14:45;49.95;;;28.47;;
27895;SDS011;15241;48.374;10.876;2023-03-03T09:19:44;57.35;;;31.15;;
27895;SDS011;15241;48.374;10.876;2023-03-03T09:24:43;55.08;;;31.62;;
27895;SDS011;15241;48.374;10.876;2023-03-03T09:29:44;51.45;;;30.05;;
27895;SDS011;15241;48.374;10.876;2023-03-03T09:34:43;47.85;;;28.60;;
27895;SDS011;15241;48.374;10.876;2023-03-03T09:39:42;53.20;;;29.55;;
27895;SDS011;15241;48.374;10.876;2023-03-03T09:50:29;50.30;;;28.90;;
27895;SDS011;15241;48.374;10.876;2023-03-03T09:55:35;52.38;;;29.40;;
27895;SDS011;15241;48.374;10.876;2023-03-03T10:00:41;51.18;;;30.72;;
27895;SDS011;15241;48.374;10.876;2023-03-03T10:05:47;48.83;;;30.72;;
27895;SDS011;15241;48.374;10.876;2023-03-03T10:10:51;51.45;;;29.87;;
27895;SDS011;15241;48.374;10.876;2023-03-03T10:16:12;46.18;;;31.05;;
27895;SDS011;15241;48.374;10.876;2023-03-03T10:21:29;44.00;;;30.45;;
27895;SDS011;15241;48.374;10.876;2023-03-03T10:26:33;46.30;;;29.57;;
27895;SDS011;15241;48.374;10.876;2023-03-03T10:31:39;47.58;;;29.67;;
27895;SDS011;15241;48.374;10.876;2023-03-03T10:36:50;49.13;;;30.23;;
27895;SDS011;15241;48.374;10.876;2023-03-03T10:42:00;47.90;;;30.62;;
27895;SDS011;15241;48.374;10.876;2023-03-03T10:52:37;44.08;;;29.60;;
27895;SDS011;15241;48.374;10.876;2023-03-03T10:57:40;47.90;;;31.75;;
27895;SDS011;15241;48.374;10.876;2023-03-03T11:02:42;43.35;;;29.98;;
27895;SDS011;15241;48.374;10.876;2023-03-03T11:07:46;42.80;;;29.60;;
27895;SDS011;15241;48.374;10.876;2023-03-03T11:12:51;39.60;;;28.15;;
27895;SDS011;15241;48.374;10.876;2023-03-03T11:22:59;42.62;;;28.27;;
27895;SDS011;15241;48.374;10.876;2023-03-03T11:28:04;41.05;;;27.73;;
27895;SDS011;15241;48.374;10.876;2023-03-03T11:33:09;41.28;;;29.20;;
27895;SDS011;15241;48.374;10.876;2023-03-03T11:43:35;40.45;;;29.63;;
27895;SDS011;15241;48.374;10.876;2023-03-03T11:48:38;40.80;;;28.75;;
27895;SDS011;15241;48.374;10.876;2023-03-03T11:53:45;40.38;;;28.85;;
27895;SDS011;15241;48.374;10.876;2023-03-03T11:58:50;41.45;;;29.40;;
27895;SDS011;15241;48.374;10.876;2023-03-03T12:03:53;40.67;;;26.17;;
27895;SDS011;15241;48.374;10.876;2023-03-03T12:09:05;39.48;;;27.70;;
27895;SDS011;15241;48.374;10.876;2023-03-03T12:14:43;41.42;;;27.37;;
27895;SDS011;15241;48.374;10.876;2023-03-03T12:19:53;39.40;;;26.95;;
27895;SDS011;15241;48.374;10.876;2023-03-03T12:25:04;38.88;;;25.62;;
27895;SDS011;15241;48.374;10.876;2023-03-03T12:30:34;38.67;;;25.62;;
27895;SDS011;15241;48.374;10.876;2023-03-03T12:35:41;31.70;;;26.45;;
27895;SDS011;15241;48.374;10.876;2023-03-03T12:40:44;29.20;;;26.00;;
27895;SDS011;15241;48.374;10.876;2023-03-03T12:45:48;30.75;;;25.85;;
27895;SDS011;15241;48.374;10.876;2023-03-03T12:50:52;27.90;;;25.10;;
27895;SDS011;15241;48.374;10.876;2023-03-03T12:55:55;27.77;;;25.08;;
27895;SDS011;15241;48.374;10.876;2023-03-03T13:00:59;27.40;;;24.82;;
27895;SDS011;15241;48.374;10.876;2023-03-03T13:06:03;24.77;;;22.67;;
27895;SDS011;15241;48.374;10.876;2023-03-03T13:11:09;25.55;;;23.25;;
27895;SDS011;15241;48.374;10.876;2023-03-03T13:16:18;26.27;;;23.95;;
27895;SDS011;15241;48.374;10.876;2023-03-03T13:21:19;25.72;;;23.30;;
27895;SDS011;15241;48.374;10.876;2023-03-03T13:26:23;28.02;;;25.17;;
27895;SDS011;15241;48.374;10.876;2023-03-03T13:31:27;27.00;;;23.85;;
27895;SDS011;15241;48.374;10.876;2023-03-03T13:36:29;26.68;;;24.23;;
27895;SDS011;15241;48.374;10.876;2023-03-03T13:41:34;26.40;;;24.00;;
27895;SDS011;15241;48.374;10.876;2023-03-03T13:46:36;25.50;;;23.20;;
27895;SDS011;15241;48.374;10.876;2023-03-03T13:51:41;24.47;;;22.10;;
27895;SDS011;15241;48.374;10.876;2023-03-03T13:56:45;24.40;;;22.40;;
27895;SDS011;15241;48.374;10.876;2023-03-03T14:06:56;24.63;;;22.17;;
27895;SDS011;15241;48.374;10.876;2023-03-03T14:11:59;23.22;;;21.05;;
27895;SDS011;15241;48.374;10.876;2023-03-03T14:17:03;22.02;;;20.02;;
27895;SDS011;15241;48.374;10.876;2023-03-03T14:22:11;21.30;;;19.50;;
27895;SDS011;15241;48.374;10.876;2023-03-03T14:27:20;23.55;;;21.25;;
27895;SDS011;15241;48.374;10.876;2023-03-03T14:32:20;24.25;;;21.95;;
27895;SDS011;15241;48.374;10.876;2023-03-03T14:37:22;24.92;;;22.58;;
27895;SDS011;15241;48.374;10.876;2023-03-03T14:42:32;25.55;;;23.25;;
27895;SDS011;15241;48.374;10.876;2023-03-03T14:47:33;24.35;;;22.05;;
27895;SDS011;15241;48.374;10.876;2023-03-03T14:52:36;23.75;;;21.45;;
27895;SDS011;15241;48.374;10.876;2023-03-03T14:57:40;25.20;;;22.93;;
27895;SDS011;15241;48.374;10.876;2023-03-03T15:02:40;24.63;;;22.37;;
27895;SDS011;15241;48.374;10.876;2023-03-03T15:07:40;27.17;;;24.47;;
27895;SDS011;15241;48.374;10.876;2023-03-03T15:12:41;26.37;;;23.98;;
27895;SDS011;15241;48.374;10.876;2023-03-03T15:17:41;26.75;;;23.87;;
27895;SDS011;15241;48.374;10.876;2023-03-03T15:22:45;28.98;;;24.77;;
27895;SDS011;15241;48.374;10.876;2023-03-03T15:27:47;25.12;;;22.62;;
27895;SDS011;15241;48.374;10.876;2023-03-03T15:32:50;29.73;;;23.13;;
27895;SDS011;15241;48.374;10.876;2023-03-03T15:37:57;25.82;;;23.02;;
27895;SDS011;15241;48.374;10.876;2023-03-03T15:43:02;28.38;;;23.35;;
27895;SDS011;15241;48.374;10.876;2023-03-03T15:53:54;26.35;;;23.70;;
27895;SDS011;15241;48.374;10.876;2023-03-03T15:59:16;24.18;;;21.75;;
27895;SDS011;15241;48.374;10.876;2023-03-03T16:04:24;26.20;;;23.05;;
27895;SDS011;15241;48.374;10.876;2023-03-03T16:09:38;26.30;;;22.65;;
27895;SDS011;15241;48.374;10.876;2023-03-03T16:14:43;26.68;;;22.65;;
27895;SDS011;15241;48.374;10.876;2023-03-03T16:20:08;31.95;;;23.32;;
27895;SDS011;15241;48.374;10.876;2023-03-03T16:25:25;31.77;;;23.50;;
27895;SDS011;15241;48.374;10.876;2023-03-03T16:30:39;31.52;;;22.95;;
27895;SDS011;15241;48.374;10.876;2023-03-03T16:35:42;29.32;;;22.58;;
27895;SDS011;15241;48.374;10.876;2023-03-03T16:40:45;30.82;;;22.48;;
27895;SDS011;15241;48.374;10.876;2023-03-03T16:45:46;32.13;;;22.55;;
27895;SDS011;15241;48.374;10.876;2023-03-03T16:50:48;33.33;;;22.95;;
27895;SDS011;15241;48.374;10.876;2023-03-03T16:55:57;40.85;;;23.60;;
27895;SDS011;15241;48.374;10.876;2023-03-03T17:00:58;36.35;;;24.20;;
27895;SDS011;15241;48.374;10.876;2023-03-03T17:06:03;47.48;;;28.42;;
27895;SDS011;15241;48.374;10.876;2023-03-03T17:11:05;49.70;;;31.93;;
27895;SDS011;15241;48.374;10.876;2023-03-03T17:16:09;52.60;;;33.13;;
27895;SDS011;15241;48.374;10.876;2023-03-03T17:26:22;56.63;;;34.48;;
27895;SDS011;15241;48.374;10.876;2023-03-03T17:31:28;57.20;;;34.88;;
27895;SDS011;15241;48.374;10.876;2023-03-03T17:36:38;60.23;;;33.08;;
27895;SDS011;15241;48.374;10.876;2023-03-03T17:41:43;54.75;;;32.50;;
27895;SDS011;15241;48.374;10.876;2023-03-03T17:46:46;58.70;;;34.35;;
27895;SDS011;15241;48.374;10.876;2023-03-03T17:52:08;64.40;;;35.38;;
27895;SDS011;15241;48.374;10.876;2023-03-03T17:57:27;59.98;;;33.35;;
27895;SDS011;15241;48.374;10.876;2023-03-03T18:02:47;60.88;;;35.28;;
27895;SDS011;15241;48.374;10.876;2023-03-03T18:13:34;61.30;;;35.08;;
27895;SDS011;15241;48.374;10.876;2023-03-03T18:18:42;65.80;;;35.05;;
27895;SDS011;15241;48.374;10.876;2023-03-03T18:23:51;61.42;;;34.30;;
27895;SDS011;15241;48.374;10.876;2023-03-03T18:28:51;68.72;;;36.17;;
27895;SDS011;15241;48.374;10.876;2023-03-03T18:34:06;63.35;;;33.90;;
27895;SDS011;15241;48.374;10.876;2023-03-03T18:39:05;64.42;;;36.75;;
27895;SDS011;15241;48.374;10.876;2023-03-03T18:44:23;62.05;;;36.38;;
27895;SDS011;15241;48.374;10.876;2023-03-03T18:55:00;57.15;;;34.70;;
27895;SDS011;15241;48.374;10.876;2023-03-03T19:00:21;61.10;;;33.83;;
27895;SDS011;15241;48.374;10.876;2023-03-03T19:05:23;63.38;;;35.25;;
27895;SDS011;15241;48.374;10.876;2023-03-03T19:15:54;63.60;;;36.10;;
27895;SDS011;15241;48.374;10.876;2023-03-03T19:20:57;66.02;;;38.25;;
27895;SDS011;15241;48.374;10.876;2023-03-03T19:26:18;70.45;;;38.88;;
27895;SDS011;15241;48.374;10.876;2023-03-03T19:31:26;71.60;;;38.63;;
27895;SDS011;15241;48.374;10.876;2023-03-03T19:36:39;68.35;;;38.23;;
27895;SDS011;15241;48.374;10.876;2023-03-03T19:41:56;66.30;;;37.67;;
27895;SDS011;15241;48.374;10.876;2023-03-03T19:47:01;73.28;;;38.45;;
27895;SDS011;15241;48.374;10.876;2023-03-03T19:52:02;66.50;;;38.38;;
27895;SDS011;15241;48.374;10.876;2023-03-03T19:57:04;71.20;;;38.78;;
27895;SDS011;15241;48.374;10.876;2023-03-03T20:02:14;70.40;;;37.67;;
27895;SDS011;15241;48.374;10.876;2023-03-03T20:07:47;62.95;;;35.30;;
27895;SDS011;15241;48.374;10.876;2023-03-03T20:12:53;74.10;;;37.53;;
27895;SDS011;15241;48.374;10.876;2023-03-03T20:23:33;69.27;;;37.78;;
27895;SDS011;15241;48.374;10.876;2023-03-03T20:34:37;69.87;;;37.75;;
27895;SDS011;15241;48.374;10.876;2023-03-03T20:39:53;70.12;;;37.40;;
27895;SDS011;15241;48.374;10.876;2023-03-03T20:45:00;73.37;;;40.67;;
27895;SDS011;15241;48.374;10.876;2023-03-03T20:50:15;67.80;;;36.68;;
27895;SDS011;15241;48.374;10.876;2023-03-03T20:55:27;65.37;;;35.83;;
27895;SDS011;15241;48.374;10.876;2023-03-03T21:00:30;68.83;;;35.30;;
27895;SDS011;15241;48.374;10.876;2023-03-03T21:05:32;68.40;;;36.10;;
27895;SDS011;15241;48.374;10.876;2023-03-03T21:10:31;69.45;;;36.88;;
27895;SDS011;15241;48.374;10.876;2023-03-03T21:15:31;67.10;;;35.15;;
27895;SDS011;15241;48.374;10.876;2023-03-03T21:20:33;64.47;;;35.43;;
27895;SDS011;15241;48.374;10.876;2023-03-03T21:25:58;66.45;;;35.13;;
27895;SDS011;15241;48.374;10.876;2023-03-03T21:31:05;66.60;;;34.58;;
27895;SDS011;15241;48.374;10.876;2023-03-03T21:36:08;61.53;;;33.08;;
27895;SDS011;15241;48.374;10.876;2023-03-03T21:41:08;56.63;;;32.13;;
27895;SDS011;15241;48.374;10.876;2023-03-03T21:46:08;57.40;;;32.10;;
27895;SDS011;15241;48.374;10.876;2023-03-03T21:51:07;67.70;;;34.90;;
27895;SDS011;15241;48.374;10.876;2023-03-03T21:56:07;61.33;;;33.58;;
27895;SDS011;15241;48.374;10.876;2023-03-03T22:01:09;62.83;;;33.98;;
27895;SDS011;15241;48.374;10.876;2023-03-03T22:06:08;58.13;;;34.38;;
27895;SDS011;15241;48.374;10.876;2023-03-03T22:11:07;65.30;;;34.48;;
27895;SDS011;15241;48.374;10.876;2023-03-03T22:16:07;63.10;;;34.48;;
27895;SDS011;15241;48.374;10.876;2023-03-03T22:21:06;66.42;;;34.73;;
27895;SDS011;15241;48.374;10.876;2023-03-03T22:26:04;63.38;;;35.13;;
27895;SDS011;15241;48.374;10.876;2023-03-03T22:31:05;64.27;;;34.83;;
27895;SDS011;15241;48.374;10.876;2023-03-03T22:36:06;65.05;;;33.35;;
27895;SDS011;15241;48.374;10.876;2023-03-03T22:41:05;61.85;;;34.73;;
27895;SDS011;15241;48.374;10.876;2023-03-03T22:46:05;68.47;;;34.65;;
27895;SDS011;15241;48.374;10.876;2023-03-03T22:51:05;65.35;;;33.60;;
27895;SDS011;15241;48.374;10.876;2023-03-03T22:56:05;60.10;;;33.42;;
27895;SDS011;15241;48.374;10.876;2023-03-03T23:01:04;71.70;;;35.05;;
27895;SDS011;15241;48.374;10.876;2023-03-03T23:06:04;62.35;;;34.45;;
27895;SDS011;15241;48.374;10.876;2023-03-03T23:11:04;63.58;;;33.45;;
27895;SDS011;15241;48.374;10.876;2023-03-03T23:16:04;67.60;;;33.92;;
27895;SDS011;15241;48.374;10.876;2023-03-03T23:21:04;62.10;;;32.03;;
27895;SDS011;15241;48.374;10.876;2023-03-03T23:26:03;63.25;;;33.35;;
27895;SDS011;15241;48.374;10.876;2023-03-03T23:31:02;56.23;;;32.53;;
27895;SDS011;15241;48.374;10.876;2023-03-03T23:36:02;60.48;;;32.58;;
27895;SDS011;15241;48.374;10.876;2023-03-03T23:41:02;55.80;;;30.62;;
27895;SDS011;15241;48.374;10.876;2023-03-03T23:46:01;57.90;;;31.95;;
27895;SDS011;15241;48.374;10.876;2023-03-03T23:51:01;55.80;;;28.75;;
27895;SDS011;15241;48.374;10.876;2023-03-03T23:56:00;59.27;;;30.80;;
